sensor_id;sensor_type;location;lat;lon;timestamp;temperature;humidity
52725;DHT22;38621;52.830;6.914;2023-02-28T00:00:23;3.90;99.90
52725;DHT22;38621;52.830;6.914;2023-02-28T00:02:48;3.90;99.90
52725;DHT22;38621;52.830;6.914;2023-02-28T00:05:18;3.90;99.90
52725;DHT22;38621;52.830;6.914;2023-02-28T00:07:44;3.90;99.90
52725;DHT22;38621;52.830;6.914;2023-02-28T00:10:13;3.90;99.90
52725;DHT22;38621;52.830;6.914;2023-02-28T00:12:39;3.90;99.90
52725;DHT22;38621;52.830;6.914;2023-02-28T00:15:07;4.00;99.90
52725;DHT22;38621;52.830;6.914;2023-02-28T00:17:33;3.90;99.90
52725;DHT22;38621;52.830;6.914;2023-02-28T00:19:58;4.00;99.90
52725;DHT22;38621;52.830;6.914;2023-02-28T00:22:27;3.90;99.90
52725;DHT22;38621;52.830;6.914;2023-02-28T00:24:53;3.90;99.90
52725;DHT22;38621;52.830;6.914;2023-02-28T00:27:19;4.00;99.90
52725;DHT22;38621;52.830;6.914;2023-02-28T00:29:46;3.90;99.90
52725;DHT22;38621;52.830;6.914;2023-02-28T00:32:12;4.00;99.90
52725;DHT22;38621;52.830;6.914;2023-02-28T00:34:38;4.00;99.90
52725;DHT22;38621;52.830;6.914;2023-02-28T00:37:05;4.00;99.90
52725;DHT22;38621;52.830;6.914;2023-02-28T00:39:33;4.00;99.90
52725;DHT22;38621;52.830;6.914;2023-02-28T00:41:59;4.00;99.90
52725;DHT22;38621;52.830;6.914;2023-02-28T00:44:25;4.00;99.90
52725;DHT22;38621;52.830;6.914;2023-02-28T00:46:50;4.00;99.90
52725;DHT22;38621;52.830;6.914;2023-02-28T00:49:17;3.90;99.90
52725;DHT22;38621;52.830;6.914;2023-02-28T00:51:43;3.80;99.90
52725;DHT22;38621;52.830;6.914;2023-02-28T00:54:09;3.80;99.90
52725;DHT22;38621;52.830;6.914;2023-02-28T00:56:34;3.60;99.90
52725;DHT22;38621;52.830;6.914;2023-02-28T00:59:00;3.70;99.90
52725;DHT22;38621;52.830;6.914;2023-02-28T01:01:25;3.70;99.90
52725;DHT22;38621;52.830;6.914;2023-02-28T01:03:51;3.70;99.90
52725;DHT22;38621;52.830;6.914;2023-02-28T01:06:17;3.70;99.90
52725;DHT22;38621;52.830;6.914;2023-02-28T01:08:42;3.80;99.90
52725;DHT22;38621;52.830;6.914;2023-02-28T01:11:10;3.80;99.90
52725;DHT22;38621;52.830;6.914;2023-02-28T01:13:36;3.80;99.90
52725;DHT22;38621;52.830;6.914;2023-02-28T01:16:01;3.80;99.90
52725;DHT22;38621;52.830;6.914;2023-02-28T01:18:27;3.80;99.90
52725;DHT22;38621;52.830;6.914;2023-02-28T01:20:54;3.80;99.90
52725;DHT22;38621;52.830;6.914;2023-02-28T01:23:21;3.80;99.90
52725;DHT22;38621;52.830;6.914;2023-02-28T01:25:49;3.80;99.90
52725;DHT22;38621;52.830;6.914;2023-02-28T01:28:15;3.80;99.90
52725;DHT22;38621;52.830;6.914;2023-02-28T01:30:40;3.70;99.90
52725;DHT22;38621;52.830;6.914;2023-02-28T01:33:06;3.70;99.90
52725;DHT22;38621;52.830;6.914;2023-02-28T01:35:33;3.70;99.90
52725;DHT22;38621;52.830;6.914;2023-02-28T01:37:59;3.70;99.90
52725;DHT22;38621;52.830;6.914;2023-02-28T01:40:25;3.80;99.90
52725;DHT22;38621;52.830;6.914;2023-02-28T01:42:51;3.80;99.90
52725;DHT22;38621;52.830;6.914;2023-02-28T01:47:51;3.80;99.90
52725;DHT22;38621;52.830;6.914;2023-02-28T01:50:21;3.80;99.90
52725;DHT22;38621;52.830;6.914;2023-02-28T01:52:48;3.80;99.90
52725;DHT22;38621;52.830;6.914;2023-02-28T01:55:17;3.80;99.90
52725;DHT22;38621;52.830;6.914;2023-02-28T01:57:48;3.80;99.90
52725;DHT22;38621;52.830;6.914;2023-02-28T02:00:17;3.80;99.90
52725;DHT22;38621;52.830;6.914;2023-02-28T02:02:47;3.70;99.90
52725;DHT22;38621;52.830;6.914;2023-02-28T02:05:20;3.70;99.90
52725;DHT22;38621;52.830;6.914;2023-02-28T02:07:52;3.70;99.90
52725;DHT22;38621;52.830;6.914;2023-02-28T02:10:25;3.70;99.90
52725;DHT22;38621;52.830;6.914;2023-02-28T02:15:49;3.70;99.90
52725;DHT22;38621;52.830;6.914;2023-02-28T02:18:22;3.70;99.90
52725;DHT22;38621;52.830;6.914;2023-02-28T02:26:47;3.60;99.90
52725;DHT22;38621;52.830;6.914;2023-02-28T02:32:15;3.60;99.90
52725;DHT22;38621;52.830;6.914;2023-02-28T02:40:25;3.70;99.90
52725;DHT22;38621;52.830;6.914;2023-02-28T02:45:28;3.70;99.90
52725;DHT22;38621;52.830;6.914;2023-02-28T02:48:02;3.80;99.90
52725;DHT22;38621;52.830;6.914;2023-02-28T02:50:42;3.80;99.90
52725;DHT22;38621;52.830;6.914;2023-02-28T02:53:11;3.80;99.90
52725;DHT22;38621;52.830;6.914;2023-02-28T02:55:41;3.80;99.90
52725;DHT22;38621;52.830;6.914;2023-02-28T02:58:11;3.80;99.90
52725;DHT22;38621;52.830;6.914;2023-02-28T03:00:46;3.70;99.90
52725;DHT22;38621;52.830;6.914;2023-02-28T03:03:15;3.80;99.90
52725;DHT22;38621;52.830;6.914;2023-02-28T03:05:48;3.70;99.90
52725;DHT22;38621;52.830;6.914;2023-02-28T03:08:14;3.70;99.90
52725;DHT22;38621;52.830;6.914;2023-02-28T03:10:43;3.60;99.90
52725;DHT22;38621;52.830;6.914;2023-02-28T03:16:15;3.60;99.90
52725;DHT22;38621;52.830;6.914;2023-02-28T03:18:58;3.60;99.90
52725;DHT22;38621;52.830;6.914;2023-02-28T03:21:45;3.60;99.90
52725;DHT22;38621;52.830;6.914;2023-02-28T03:24:21;3.60;99.90
52725;DHT22;38621;52.830;6.914;2023-02-28T03:26:58;3.60;99.90
52725;DHT22;38621;52.830;6.914;2023-02-28T03:29:46;3.60;99.90
52725;DHT22;38621;52.830;6.914;2023-02-28T03:32:18;3.60;99.90
52725;DHT22;38621;52.830;6.914;2023-02-28T03:34:59;3.60;99.90
52725;DHT22;38621;52.830;6.914;2023-02-28T03:37:27;3.70;99.90
52725;DHT22;38621;52.830;6.914;2023-02-28T03:40:08;3.60;99.90
52725;DHT22;38621;52.830;6.914;2023-02-28T03:42:39;3.60;99.90
52725;DHT22;38621;52.830;6.914;2023-02-28T03:45:11;3.60;99.90
52725;DHT22;38621;52.830;6.914;2023-02-28T03:47:44;3.60;99.90
52725;DHT22;38621;52.830;6.914;2023-02-28T03:50:34;3.60;99.90
52725;DHT22;38621;52.830;6.914;2023-02-28T03:53:13;3.50;99.90
52725;DHT22;38621;52.830;6.914;2023-02-28T03:55:54;3.50;99.90
52725;DHT22;38621;52.830;6.914;2023-02-28T04:01:15;3.40;99.90
52725;DHT22;38621;52.830;6.914;2023-02-28T04:03:42;3.40;99.90
52725;DHT22;38621;52.830;6.914;2023-02-28T04:06:14;3.40;99.90
52725;DHT22;38621;52.830;6.914;2023-02-28T04:08:41;3.40;99.90
52725;DHT22;38621;52.830;6.914;2023-02-28T04:11:34;3.40;99.90
52725;DHT22;38621;52.830;6.914;2023-02-28T04:14:05;3.40;99.90
52725;DHT22;38621;52.830;6.914;2023-02-28T04:16:32;3.40;99.90
52725;DHT22;38621;52.830;6.914;2023-02-28T04:18:58;3.40;99.90
52725;DHT22;38621;52.830;6.914;2023-02-28T04:21:40;3.40;99.90
52725;DHT22;38621;52.830;6.914;2023-02-28T04:24:08;3.40;99.90
52725;DHT22;38621;52.830;6.914;2023-02-28T04:26:40;3.30;99.90
52725;DHT22;38621;52.830;6.914;2023-02-28T04:29:06;3.30;99.90
52725;DHT22;38621;52.830;6.914;2023-02-28T04:31:33;3.20;99.90
52725;DHT22;38621;52.830;6.914;2023-02-28T04:33:59;3.20;99.90
52725;DHT22;38621;52.830;6.914;2023-02-28T04:36:25;3.20;99.90
52725;DHT22;38621;52.830;6.914;2023-02-28T04:38:51;3.40;99.90
52725;DHT22;38621;52.830;6.914;2023-02-28T04:41:17;3.30;99.90
52725;DHT22;38621;52.830;6.914;2023-02-28T04:43:43;3.30;99.90
52725;DHT22;38621;52.830;6.914;2023-02-28T04:46:09;3.30;99.90
52725;DHT22;38621;52.830;6.914;2023-02-28T04:48:37;3.30;99.90
52725;DHT22;38621;52.830;6.914;2023-02-28T04:51:09;3.30;99.90
52725;DHT22;38621;52.830;6.914;2023-02-28T04:53:36;3.30;99.90
52725;DHT22;38621;52.830;6.914;2023-02-28T04:56:02;3.30;99.90
52725;DHT22;38621;52.830;6.914;2023-02-28T04:58:28;3.20;99.90
52725;DHT22;38621;52.830;6.914;2023-02-28T05:01:02;3.20;99.90
52725;DHT22;38621;52.830;6.914;2023-02-28T05:03:28;3.20;99.90
52725;DHT22;38621;52.830;6.914;2023-02-28T05:05:54;3.10;99.90
52725;DHT22;38621;52.830;6.914;2023-02-28T05:08:19;3.10;99.90
52725;DHT22;38621;52.830;6.914;2023-02-28T05:10:45;3.20;99.90
52725;DHT22;38621;52.830;6.914;2023-02-28T05:13:14;3.10;99.90
52725;DHT22;38621;52.830;6.914;2023-02-28T05:15:40;3.10;99.90
52725;DHT22;38621;52.830;6.914;2023-02-28T05:18:05;3.20;99.90
52725;DHT22;38621;52.830;6.914;2023-02-28T05:20:31;3.20;99.90
52725;DHT22;38621;52.830;6.914;2023-02-28T05:22:58;3.20;99.90
52725;DHT22;38621;52.830;6.914;2023-02-28T05:25:24;3.20;99.90
52725;DHT22;38621;52.830;6.914;2023-02-28T05:27:50;3.20;99.90
52725;DHT22;38621;52.830;6.914;2023-02-28T05:30:16;3.30;99.90
52725;DHT22;38621;52.830;6.914;2023-02-28T05:32:42;3.30;99.90
52725;DHT22;38621;52.830;6.914;2023-02-28T05:35:12;3.30;99.90
52725;DHT22;38621;52.830;6.914;2023-02-28T05:37:39;3.30;99.90
52725;DHT22;38621;52.830;6.914;2023-02-28T05:40:06;3.30;99.90
52725;DHT22;38621;52.830;6.914;2023-02-28T05:42:33;3.20;99.90
52725;DHT22;38621;52.830;6.914;2023-02-28T05:44:59;3.20;99.90
52725;DHT22;38621;52.830;6.914;2023-02-28T05:47:25;3.30;99.90
52725;DHT22;38621;52.830;6.914;2023-02-28T05:49:50;3.40;99.90
52725;DHT22;38621;52.830;6.914;2023-02-28T05:52:16;3.30;99.90
52725;DHT22;38621;52.830;6.914;2023-02-28T05:54:42;3.30;99.90
52725;DHT22;38621;52.830;6.914;2023-02-28T05:57:08;3.30;99.90
52725;DHT22;38621;52.830;6.914;2023-02-28T05:59:33;3.30;99.90
52725;DHT22;38621;52.830;6.914;2023-02-28T06:01:59;3.30;99.90
52725;DHT22;38621;52.830;6.914;2023-02-28T06:04:25;3.30;99.90
52725;DHT22;38621;52.830;6.914;2023-02-28T06:06:51;3.40;99.90
52725;DHT22;38621;52.830;6.914;2023-02-28T06:09:18;3.30;99.90
52725;DHT22;38621;52.830;6.914;2023-02-28T06:11:44;3.30;99.90
52725;DHT22;38621;52.830;6.914;2023-02-28T06:14:20;3.30;99.90
52725;DHT22;38621;52.830;6.914;2023-02-28T06:16:46;3.30;99.90
52725;DHT22;38621;52.830;6.914;2023-02-28T06:19:12;3.20;99.90
52725;DHT22;38621;52.830;6.914;2023-02-28T06:21:38;3.20;99.90
52725;DHT22;38621;52.830;6.914;2023-02-28T06:24:04;3.20;99.90
52725;DHT22;38621;52.830;6.914;2023-02-28T06:26:30;3.10;99.90
52725;DHT22;38621;52.830;6.914;2023-02-28T06:28:56;3.00;99.90
52725;DHT22;38621;52.830;6.914;2023-02-28T06:31:22;3.00;99.90
52725;DHT22;38621;52.830;6.914;2023-02-28T06:33:49;3.10;99.90
52725;DHT22;38621;52.830;6.914;2023-02-28T06:36:16;3.10;99.90
52725;DHT22;38621;52.830;6.914;2023-02-28T06:38:41;3.10;99.90
52725;DHT22;38621;52.830;6.914;2023-02-28T06:41:08;3.20;99.90
52725;DHT22;38621;52.830;6.914;2023-02-28T06:43:36;3.20;99.90
52725;DHT22;38621;52.830;6.914;2023-02-28T06:46:04;3.20;99.90
52725;DHT22;38621;52.830;6.914;2023-02-28T06:48:30;3.20;99.90
52725;DHT22;38621;52.830;6.914;2023-02-28T06:51:11;3.20;99.90
52725;DHT22;38621;52.830;6.914;2023-02-28T06:53:39;3.30;99.90
52725;DHT22;38621;52.830;6.914;2023-02-28T06:56:06;3.30;99.90
52725;DHT22;38621;52.830;6.914;2023-02-28T06:58:33;3.30;99.90
52725;DHT22;38621;52.830;6.914;2023-02-28T07:00:59;3.40;99.90
52725;DHT22;38621;52.830;6.914;2023-02-28T07:03:25;3.40;99.90
52725;DHT22;38621;52.830;6.914;2023-02-28T07:05:51;3.50;99.90
52725;DHT22;38621;52.830;6.914;2023-02-28T07:08:16;3.40;99.90
52725;DHT22;38621;52.830;6.914;2023-02-28T07:10:42;3.40;99.90
52725;DHT22;38621;52.830;6.914;2023-02-28T07:13:08;3.40;99.90
52725;DHT22;38621;52.830;6.914;2023-02-28T07:15:35;3.40;99.90
52725;DHT22;38621;52.830;6.914;2023-02-28T07:18:01;3.40;99.90
52725;DHT22;38621;52.830;6.914;2023-02-28T07:20:27;3.30;99.90
52725;DHT22;38621;52.830;6.914;2023-02-28T07:22:52;3.30;99.90
52725;DHT22;38621;52.830;6.914;2023-02-28T07:25:28;3.40;99.90
52725;DHT22;38621;52.830;6.914;2023-02-28T07:27:55;3.30;99.90
52725;DHT22;38621;52.830;6.914;2023-02-28T07:30:21;3.20;99.90
52725;DHT22;38621;52.830;6.914;2023-02-28T07:32:47;3.30;99.90
52725;DHT22;38621;52.830;6.914;2023-02-28T07:35:14;3.20;99.90
52725;DHT22;38621;52.830;6.914;2023-02-28T07:37:41;3.20;99.90
52725;DHT22;38621;52.830;6.914;2023-02-28T07:40:09;3.30;99.90
52725;DHT22;38621;52.830;6.914;2023-02-28T07:42:37;3.30;99.90
52725;DHT22;38621;52.830;6.914;2023-02-28T07:45:04;3.30;99.90
52725;DHT22;38621;52.830;6.914;2023-02-28T07:47:30;3.30;99.90
52725;DHT22;38621;52.830;6.914;2023-02-28T07:49:56;3.30;99.90
52725;DHT22;38621;52.830;6.914;2023-02-28T07:52:22;3.30;99.90
52725;DHT22;38621;52.830;6.914;2023-02-28T07:54:49;3.30;99.90
52725;DHT22;38621;52.830;6.914;2023-02-28T07:57:15;3.20;99.90
52725;DHT22;38621;52.830;6.914;2023-02-28T07:59:41;3.20;99.90
52725;DHT22;38621;52.830;6.914;2023-02-28T08:02:10;3.20;99.90
52725;DHT22;38621;52.830;6.914;2023-02-28T08:04:37;3.20;99.90
52725;DHT22;38621;52.830;6.914;2023-02-28T08:07:03;3.20;99.90
52725;DHT22;38621;52.830;6.914;2023-02-28T08:09:29;3.20;99.90
52725;DHT22;38621;52.830;6.914;2023-02-28T08:11:55;3.20;99.90
52725;DHT22;38621;52.830;6.914;2023-02-28T08:14:21;3.20;99.90
52725;DHT22;38621;52.830;6.914;2023-02-28T08:16:47;3.30;99.90
52725;DHT22;38621;52.830;6.914;2023-02-28T08:19:12;3.50;99.90
52725;DHT22;38621;52.830;6.914;2023-02-28T08:21:38;3.50;99.90
52725;DHT22;38621;52.830;6.914;2023-02-28T08:24:05;3.70;99.90
52725;DHT22;38621;52.830;6.914;2023-02-28T08:26:31;3.80;99.90
52725;DHT22;38621;52.830;6.914;2023-02-28T08:28:57;4.00;99.90
52725;DHT22;38621;52.830;6.914;2023-02-28T08:31:23;4.10;99.90
52725;DHT22;38621;52.830;6.914;2023-02-28T08:33:49;4.20;99.90
52725;DHT22;38621;52.830;6.914;2023-02-28T08:36:17;4.20;99.90
52725;DHT22;38621;52.830;6.914;2023-02-28T08:38:43;4.30;99.90
52725;DHT22;38621;52.830;6.914;2023-02-28T08:41:11;4.50;99.90
52725;DHT22;38621;52.830;6.914;2023-02-28T08:43:38;4.50;99.90
52725;DHT22;38621;52.830;6.914;2023-02-28T08:46:05;4.60;99.90
52725;DHT22;38621;52.830;6.914;2023-02-28T08:48:33;4.70;99.90
52725;DHT22;38621;52.830;6.914;2023-02-28T08:51:07;4.80;99.90
52725;DHT22;38621;52.830;6.914;2023-02-28T08:53:36;4.90;99.90
52725;DHT22;38621;52.830;6.914;2023-02-28T08:56:07;5.10;99.90
52725;DHT22;38621;52.830;6.914;2023-02-28T08:58:33;5.20;99.90
52725;DHT22;38621;52.830;6.914;2023-02-28T09:01:00;5.30;99.90
52725;DHT22;38621;52.830;6.914;2023-02-28T09:03:26;5.30;99.90
52725;DHT22;38621;52.830;6.914;2023-02-28T09:05:58;5.40;99.90
52725;DHT22;38621;52.830;6.914;2023-02-28T09:08:25;5.50;99.90
52725;DHT22;38621;52.830;6.914;2023-02-28T09:10:51;5.50;99.90
52725;DHT22;38621;52.830;6.914;2023-02-28T09:13:18;5.60;99.90
52725;DHT22;38621;52.830;6.914;2023-02-28T09:15:44;5.70;99.90
52725;DHT22;38621;52.830;6.914;2023-02-28T09:18:10;5.80;99.90
52725;DHT22;38621;52.830;6.914;2023-02-28T09:20:40;5.90;99.90
52725;DHT22;38621;52.830;6.914;2023-02-28T09:23:07;6.00;99.90
52725;DHT22;38621;52.830;6.914;2023-02-28T09:25:33;6.10;99.90
52725;DHT22;38621;52.830;6.914;2023-02-28T09:27:59;6.00;99.90
52725;DHT22;38621;52.830;6.914;2023-02-28T09:30:25;5.80;99.90
52725;DHT22;38621;52.830;6.914;2023-02-28T09:32:51;5.60;99.90
52725;DHT22;38621;52.830;6.914;2023-02-28T09:35:20;5.70;99.90
52725;DHT22;38621;52.830;6.914;2023-02-28T09:37:48;5.80;99.90
52725;DHT22;38621;52.830;6.914;2023-02-28T09:40:14;5.90;99.90
52725;DHT22;38621;52.830;6.914;2023-02-28T09:42:45;6.00;99.90
52725;DHT22;38621;52.830;6.914;2023-02-28T09:47:48;6.20;99.90
52725;DHT22;38621;52.830;6.914;2023-02-28T09:50:44;6.30;99.90
52725;DHT22;38621;52.830;6.914;2023-02-28T09:53:20;6.20;99.90
52725;DHT22;38621;52.830;6.914;2023-02-28T09:55:52;6.20;99.90
52725;DHT22;38621;52.830;6.914;2023-02-28T09:58:28;6.20;99.90
52725;DHT22;38621;52.830;6.914;2023-02-28T10:03:50;6.50;99.90
52725;DHT22;38621;52.830;6.914;2023-02-28T10:06:26;7.00;99.90
52725;DHT22;38621;52.830;6.914;2023-02-28T10:09:02;7.70;99.90
52725;DHT22;38621;52.830;6.914;2023-02-28T10:11:30;8.10;99.90
52725;DHT22;38621;52.830;6.914;2023-02-28T10:14:14;8.60;99.90
52725;DHT22;38621;52.830;6.914;2023-02-28T10:16:55;8.80;99.90
52725;DHT22;38621;52.830;6.914;2023-02-28T10:22:11;9.20;99.90
52725;DHT22;38621;52.830;6.914;2023-02-28T10:24:46;9.00;99.90
52725;DHT22;38621;52.830;6.914;2023-02-28T10:27:18;9.10;99.90
52725;DHT22;38621;52.830;6.914;2023-02-28T10:29:52;9.00;99.90
52725;DHT22;38621;52.830;6.914;2023-02-28T10:32:21;9.20;99.90
52725;DHT22;38621;52.830;6.914;2023-02-28T10:37:26;9.50;99.90
52725;DHT22;38621;52.830;6.914;2023-02-28T10:39:52;9.70;99.90
52725;DHT22;38621;52.830;6.914;2023-02-28T10:42:29;10.00;99.90
52725;DHT22;38621;52.830;6.914;2023-02-28T10:45:11;10.10;99.90
52725;DHT22;38621;52.830;6.914;2023-02-28T10:53:28;10.90;99.90
52725;DHT22;38621;52.830;6.914;2023-02-28T10:58:52;11.10;99.90
52725;DHT22;38621;52.830;6.914;2023-02-28T11:03:48;11.60;99.90
52725;DHT22;38621;52.830;6.914;2023-02-28T11:06:20;11.60;99.90
52725;DHT22;38621;52.830;6.914;2023-02-28T11:08:49;11.20;99.90
52725;DHT22;38621;52.830;6.914;2023-02-28T11:11:16;10.70;99.90
52725;DHT22;38621;52.830;6.914;2023-02-28T11:13:44;10.40;99.90
52725;DHT22;38621;52.830;6.914;2023-02-28T11:16:12;10.30;99.90
52725;DHT22;38621;52.830;6.914;2023-02-28T11:18:51;10.20;99.90
52725;DHT22;38621;52.830;6.914;2023-02-28T11:21:31;10.40;99.90
52725;DHT22;38621;52.830;6.914;2023-02-28T11:24:30;10.60;99.90
52725;DHT22;38621;52.830;6.914;2023-02-28T11:26:57;10.60;99.90
52725;DHT22;38621;52.830;6.914;2023-02-28T11:29:31;10.90;99.90
52725;DHT22;38621;52.830;6.914;2023-02-28T11:32:19;11.10;99.90
52725;DHT22;38621;52.830;6.914;2023-02-28T11:34:47;11.30;99.90
52725;DHT22;38621;52.830;6.914;2023-02-28T11:37:24;11.70;99.90
52725;DHT22;38621;52.830;6.914;2023-02-28T11:39:52;11.80;99.90
52725;DHT22;38621;52.830;6.914;2023-02-28T11:48:10;12.30;99.90
52725;DHT22;38621;52.830;6.914;2023-02-28T11:53:52;11.90;99.90
52725;DHT22;38621;52.830;6.914;2023-02-28T11:56:27;12.00;99.90
52725;DHT22;38621;52.830;6.914;2023-02-28T11:59:29;12.00;99.90
52725;DHT22;38621;52.830;6.914;2023-02-28T12:10:37;10.00;99.90
52725;DHT22;38621;52.830;6.914;2023-02-28T12:13:28;9.80;99.90
52725;DHT22;38621;52.830;6.914;2023-02-28T12:26:49;11.10;99.90
52725;DHT22;38621;52.830;6.914;2023-02-28T12:29:39;11.90;99.90
52725;DHT22;38621;52.830;6.914;2023-02-28T12:32:13;12.40;99.90
52725;DHT22;38621;52.830;6.914;2023-02-28T12:37:35;12.30;99.90
52725;DHT22;38621;52.830;6.914;2023-02-28T12:40:14;11.70;99.90
52725;DHT22;38621;52.830;6.914;2023-02-28T12:42:55;12.00;99.90
52725;DHT22;38621;52.830;6.914;2023-02-28T12:45:43;12.40;99.90
52725;DHT22;38621;52.830;6.914;2023-02-28T12:48:15;12.70;99.90
52725;DHT22;38621;52.830;6.914;2023-02-28T12:50:45;12.70;99.90
52725;DHT22;38621;52.830;6.914;2023-02-28T12:54:16;12.60;99.90
52725;DHT22;38621;52.830;6.914;2023-02-28T12:56:44;12.60;99.90
52725;DHT22;38621;52.830;6.914;2023-02-28T13:02:17;12.50;99.90
52725;DHT22;38621;52.830;6.914;2023-02-28T13:10:23;13.60;99.90
52725;DHT22;38621;52.830;6.914;2023-02-28T13:12:53;13.50;99.90
52725;DHT22;38621;52.830;6.914;2023-02-28T13:15:24;12.90;99.90
52725;DHT22;38621;52.830;6.914;2023-02-28T13:17:52;12.40;99.90
52725;DHT22;38621;52.830;6.914;2023-02-28T13:20:19;11.90;99.90
52725;DHT22;38621;52.830;6.914;2023-02-28T13:22:51;11.50;99.90
52725;DHT22;38621;52.830;6.914;2023-02-28T13:28:00;10.60;99.90
52725;DHT22;38621;52.830;6.914;2023-02-28T13:33:25;10.00;99.90
52725;DHT22;38621;52.830;6.914;2023-02-28T13:38:56;10.00;99.90
52725;DHT22;38621;52.830;6.914;2023-02-28T13:44:19;10.20;99.90
52725;DHT22;38621;52.830;6.914;2023-02-28T13:51:53;11.10;99.90
52725;DHT22;38621;52.830;6.914;2023-02-28T14:05:23;11.30;99.90
52725;DHT22;38621;52.830;6.914;2023-02-28T14:07:57;11.30;99.90
52725;DHT22;38621;52.830;6.914;2023-02-28T14:10:35;11.20;99.90
52725;DHT22;38621;52.830;6.914;2023-02-28T14:16:19;10.70;99.90
52725;DHT22;38621;52.830;6.914;2023-02-28T14:19:01;10.40;99.90
52725;DHT22;38621;52.830;6.914;2023-02-28T14:21:34;10.60;99.90
52725;DHT22;38621;52.830;6.914;2023-02-28T14:32:44;9.60;99.90
52725;DHT22;38621;52.830;6.914;2023-02-28T14:38:31;9.30;99.90
52725;DHT22;38621;52.830;6.914;2023-02-28T14:41:02;9.20;99.90
52725;DHT22;38621;52.830;6.914;2023-02-28T14:43:29;9.20;99.90
52725;DHT22;38621;52.830;6.914;2023-02-28T14:46:02;9.10;99.90
52725;DHT22;38621;52.830;6.914;2023-02-28T14:48:31;9.10;99.90
52725;DHT22;38621;52.830;6.914;2023-02-28T14:50:58;9.00;99.90
52725;DHT22;38621;52.830;6.914;2023-02-28T14:53:28;9.00;99.90
52725;DHT22;38621;52.830;6.914;2023-02-28T14:55:54;9.00;99.90
52725;DHT22;38621;52.830;6.914;2023-02-28T14:58:29;8.90;99.90
52725;DHT22;38621;52.830;6.914;2023-02-28T15:01:00;8.90;99.90
52725;DHT22;38621;52.830;6.914;2023-02-28T15:03:33;8.80;99.90
52725;DHT22;38621;52.830;6.914;2023-02-28T15:06:13;8.80;99.90
52725;DHT22;38621;52.830;6.914;2023-02-28T15:08:40;8.70;99.90
52725;DHT22;38621;52.830;6.914;2023-02-28T15:11:11;8.80;99.90
52725;DHT22;38621;52.830;6.914;2023-02-28T15:13:46;9.00;99.90
52725;DHT22;38621;52.830;6.914;2023-02-28T15:16:30;9.00;99.90
52725;DHT22;38621;52.830;6.914;2023-02-28T15:19:00;9.10;99.90
52725;DHT22;38621;52.830;6.914;2023-02-28T15:21:48;9.40;99.90
52725;DHT22;38621;52.830;6.914;2023-02-28T15:24:35;9.50;99.90
52725;DHT22;38621;52.830;6.914;2023-02-28T15:27:07;9.50;99.90
52725;DHT22;38621;52.830;6.914;2023-02-28T15:29:44;9.50;99.90
52725;DHT22;38621;52.830;6.914;2023-02-28T15:32:24;9.60;99.90
52725;DHT22;38621;52.830;6.914;2023-02-28T15:34:51;9.60;99.90
52725;DHT22;38621;52.830;6.914;2023-02-28T15:37:40;9.70;99.90
52725;DHT22;38621;52.830;6.914;2023-02-28T15:43:07;10.00;99.90
52725;DHT22;38621;52.830;6.914;2023-02-28T15:48:20;11.00;99.90
52725;DHT22;38621;52.830;6.914;2023-02-28T15:50:55;11.60;99.90
52725;DHT22;38621;52.830;6.914;2023-02-28T15:53:28;12.00;99.90
52725;DHT22;38621;52.830;6.914;2023-02-28T15:56:03;12.20;99.90
52725;DHT22;38621;52.830;6.914;2023-02-28T15:58:30;12.10;99.90
52725;DHT22;38621;52.830;6.914;2023-02-28T16:01:03;11.70;99.90
52725;DHT22;38621;52.830;6.914;2023-02-28T16:03:43;11.60;99.90
52725;DHT22;38621;52.830;6.914;2023-02-28T16:08:59;11.10;99.90
52725;DHT22;38621;52.830;6.914;2023-02-28T16:11:24;10.70;99.90
52725;DHT22;38621;52.830;6.914;2023-02-28T16:13:51;10.30;99.90
52725;DHT22;38621;52.830;6.914;2023-02-28T16:16:19;10.10;99.90
52725;DHT22;38621;52.830;6.914;2023-02-28T16:18:45;10.20;99.90
52725;DHT22;38621;52.830;6.914;2023-02-28T16:21:11;10.20;99.90
52725;DHT22;38621;52.830;6.914;2023-02-28T16:23:37;10.30;99.90
52725;DHT22;38621;52.830;6.914;2023-02-28T16:26:03;10.30;99.90
52725;DHT22;38621;52.830;6.914;2023-02-28T16:28:31;10.10;99.90
52725;DHT22;38621;52.830;6.914;2023-02-28T16:31:03;9.80;99.90
52725;DHT22;38621;52.830;6.914;2023-02-28T16:33:30;9.60;99.90
52725;DHT22;38621;52.830;6.914;2023-02-28T16:35:56;9.40;99.90
52725;DHT22;38621;52.830;6.914;2023-02-28T16:38:21;9.50;99.90
52725;DHT22;38621;52.830;6.914;2023-02-28T16:40:50;9.50;99.90
52725;DHT22;38621;52.830;6.914;2023-02-28T16:43:23;9.70;99.90
52725;DHT22;38621;52.830;6.914;2023-02-28T16:45:50;9.80;99.90
52725;DHT22;38621;52.830;6.914;2023-02-28T16:48:19;9.90;99.90
52725;DHT22;38621;52.830;6.914;2023-02-28T16:50:45;9.90;99.90
52725;DHT22;38621;52.830;6.914;2023-02-28T16:53:10;9.80;99.90
52725;DHT22;38621;52.830;6.914;2023-02-28T16:55:36;9.60;99.90
52725;DHT22;38621;52.830;6.914;2023-02-28T16:58:03;9.30;99.90
52725;DHT22;38621;52.830;6.914;2023-02-28T17:00:32;9.10;99.90
52725;DHT22;38621;52.830;6.914;2023-02-28T17:02:58;8.90;99.90
52725;DHT22;38621;52.830;6.914;2023-02-28T17:05:31;8.50;99.90
52725;DHT22;38621;52.830;6.914;2023-02-28T17:07:58;7.90;99.90
52725;DHT22;38621;52.830;6.914;2023-02-28T17:10:25;7.50;99.90
52725;DHT22;38621;52.830;6.914;2023-02-28T17:12:52;7.10;99.90
52725;DHT22;38621;52.830;6.914;2023-02-28T17:15:19;6.70;99.90
52725;DHT22;38621;52.830;6.914;2023-02-28T17:17:47;6.50;99.90
52725;DHT22;38621;52.830;6.914;2023-02-28T17:20:16;6.30;99.90
52725;DHT22;38621;52.830;6.914;2023-02-28T17:22:42;6.10;99.90
52725;DHT22;38621;52.830;6.914;2023-02-28T17:25:09;6.00;99.90
52725;DHT22;38621;52.830;6.914;2023-02-28T17:27:36;5.80;99.90
52725;DHT22;38621;52.830;6.914;2023-02-28T17:30:25;5.70;99.90
52725;DHT22;38621;52.830;6.914;2023-02-28T17:32:49;5.70;99.90
52725;DHT22;38621;52.830;6.914;2023-02-28T17:35:16;5.60;99.90
52725;DHT22;38621;52.830;6.914;2023-02-28T17:37:42;5.50;99.90
52725;DHT22;38621;52.830;6.914;2023-02-28T17:40:22;5.40;99.90
52725;DHT22;38621;52.830;6.914;2023-02-28T17:42:48;5.40;99.90
52725;DHT22;38621;52.830;6.914;2023-02-28T17:45:15;5.30;99.90
52725;DHT22;38621;52.830;6.914;2023-02-28T17:47:43;5.30;99.90
52725;DHT22;38621;52.830;6.914;2023-02-28T17:50:21;5.20;99.90
52725;DHT22;38621;52.830;6.914;2023-02-28T17:52:47;5.00;99.90
52725;DHT22;38621;52.830;6.914;2023-02-28T17:55:13;4.80;99.90
52725;DHT22;38621;52.830;6.914;2023-02-28T17:57:39;4.70;99.90
52725;DHT22;38621;52.830;6.914;2023-02-28T18:00:07;4.60;99.90
52725;DHT22;38621;52.830;6.914;2023-02-28T18:02:33;4.50;99.90
52725;DHT22;38621;52.830;6.914;2023-02-28T18:04:59;4.40;99.90
52725;DHT22;38621;52.830;6.914;2023-02-28T18:07:25;4.40;99.90
52725;DHT22;38621;52.830;6.914;2023-02-28T18:09:51;4.30;99.90
52725;DHT22;38621;52.830;6.914;2023-02-28T18:12:16;4.20;99.90
52725;DHT22;38621;52.830;6.914;2023-02-28T18:14:42;4.20;99.90
52725;DHT22;38621;52.830;6.914;2023-02-28T18:17:12;4.10;99.90
52725;DHT22;38621;52.830;6.914;2023-02-28T18:19:38;4.00;99.90